Terminal Aerodrome Forecast
Issued by NWS

Home | Current Version | Previous Version | Text Only | Print | Product List | Glossary On
Versions: 1 2 3 4 5 6 7 8 9 10 11 12 13 14 15 16 17 18 19 20 21 22 23 24
000
FTUS43 KDMX 191137
TAFOTM
TAF
KOTM 191137Z 1912/2012 11007KT 3SM BR BKN030
     FM191300 13006KT 4SM BR BKN030
     FM191800 12006KT 4SM BR OVC009
     FM200100 10005KT 2SM BR OVC005=

USA.gov is the U.S. government's official web portal to all federal, state and local government web resources and services.